sensor_id;sensor_type;location;lat;lon;timestamp;pressure;altitude;pressure_sealevel;temperature;humidity
29569;BME280;16501;51.462;14.346;2024-01-15T00:02:05;98207.00;;;-0.29;100.00
29569;BME280;16501;51.462;14.346;2024-01-15T00:04:35;98188.59;;;-0.41;100.00
29569;BME280;16501;51.462;14.346;2024-01-15T00:07:00;98195.59;;;-0.40;100.00
29569;BME280;16501;51.462;14.346;2024-01-15T00:09:26;98167.56;;;-0.48;100.00
29569;BME280;16501;51.462;14.346;2024-01-15T00:11:52;98184.59;;;-0.40;100.00
29569;BME280;16501;51.462;14.346;2024-01-15T00:14:17;98223.28;;;-0.22;100.00
29569;BME280;16501;51.462;14.346;2024-01-15T00:16:45;98171.66;;;-0.52;100.00
29569;BME280;16501;51.462;14.346;2024-01-15T00:19:10;98192.84;;;-0.40;100.00
29569;BME280;16501;51.462;14.346;2024-01-15T00:21:35;98199.28;;;-0.43;100.00
29569;BME280;16501;51.462;14.346;2024-01-15T00:24:00;98205.47;;;-0.30;100.00
29569;BME280;16501;51.462;14.346;2024-01-15T00:26:26;98188.06;;;-0.27;100.00
29569;BME280;16501;51.462;14.346;2024-01-15T00:28:51;98199.38;;;-0.25;100.00
29569;BME280;16501;51.462;14.346;2024-01-15T00:31:16;98197.88;;;-0.26;100.00
29569;BME280;16501;51.462;14.346;2024-01-15T00:33:42;98159.94;;;-0.44;100.00
29569;BME280;16501;51.462;14.346;2024-01-15T00:36:07;98166.28;;;-0.34;100.00
29569;BME280;16501;51.462;14.346;2024-01-15T00:38:33;98176.41;;;-0.31;100.00
29569;BME280;16501;51.462;14.346;2024-01-15T00:40:58;98174.53;;;-0.34;100.00
29569;BME280;16501;51.462;14.346;2024-01-15T00:43:23;98158.34;;;-0.32;100.00
29569;BME280;16501;51.462;14.346;2024-01-15T00:45:48;98180.75;;;-0.21;100.00
29569;BME280;16501;51.462;14.346;2024-01-15T00:48:14;98181.38;;;-0.16;100.00
29569;BME280;16501;51.462;14.346;2024-01-15T00:50:39;98150.25;;;-0.26;100.00
29569;BME280;16501;51.462;14.346;2024-01-15T00:53:04;98141.81;;;-0.32;100.00
29569;BME280;16501;51.462;14.346;2024-01-15T00:55:29;98120.59;;;-0.53;100.00
29569;BME280;16501;51.462;14.346;2024-01-15T00:57:55;98161.66;;;-0.15;100.00
29569;BME280;16501;51.462;14.346;2024-01-15T01:00:20;98162.41;;;-0.14;100.00
29569;BME280;16501;51.462;14.346;2024-01-15T01:02:45;98157.19;;;-0.22;100.00
29569;BME280;16501;51.462;14.346;2024-01-15T01:05:11;98147.06;;;-0.25;100.00
29569;BME280;16501;51.462;14.346;2024-01-15T01:07:36;98150.94;;;-0.13;100.00
29569;BME280;16501;51.462;14.346;2024-01-15T01:10:01;98121.66;;;-0.29;100.00
29569;BME280;16501;51.462;14.346;2024-01-15T01:12:29;98135.75;;;-0.17;100.00
29569;BME280;16501;51.462;14.346;2024-01-15T01:14:55;98122.94;;;-0.11;100.00
29569;BME280;16501;51.462;14.346;2024-01-15T01:17:20;98122.25;;;-0.25;100.00
29569;BME280;16501;51.462;14.346;2024-01-15T01:19:45;98126.78;;;-0.09;100.00
29569;BME280;16501;51.462;14.346;2024-01-15T01:22:10;98121.69;;;-0.20;100.00
29569;BME280;16501;51.462;14.346;2024-01-15T01:24:36;98114.50;;;-0.17;100.00
29569;BME280;16501;51.462;14.346;2024-01-15T01:27:01;98114.69;;;-0.11;100.00
29569;BME280;16501;51.462;14.346;2024-01-15T01:29:26;98113.72;;;-0.17;100.00
29569;BME280;16501;51.462;14.346;2024-01-15T01:31:52;98113.94;;;-0.12;100.00
29569;BME280;16501;51.462;14.346;2024-01-15T01:34:17;98107.88;;;-0.29;100.00
29569;BME280;16501;51.462;14.346;2024-01-15T01:36:43;98087.38;;;-0.28;100.00
29569;BME280;16501;51.462;14.346;2024-01-15T01:39:08;98103.97;;;-0.09;100.00
29569;BME280;16501;51.462;14.346;2024-01-15T01:41:34;98110.72;;;-0.10;100.00
29569;BME280;16501;51.462;14.346;2024-01-15T01:43:59;98103.94;;;-0.18;100.00
29569;BME280;16501;51.462;14.346;2024-01-15T01:46:27;98096.88;;;-0.20;100.00
29569;BME280;16501;51.462;14.346;2024-01-15T01:48:52;98092.63;;;-0.21;100.00
29569;BME280;16501;51.462;14.346;2024-01-15T01:51:18;98102.75;;;-0.08;100.00
29569;BME280;16501;51.462;14.346;2024-01-15T01:53:45;98082.22;;;-0.16;100.00
29569;BME280;16501;51.462;14.346;2024-01-15T01:56:11;98082.06;;;-0.13;100.00
29569;BME280;16501;51.462;14.346;2024-01-15T01:58:37;98089.75;;;-0.08;100.00
29569;BME280;16501;51.462;14.346;2024-01-15T02:01:03;98090.50;;;-0.07;100.00
29569;BME280;16501;51.462;14.346;2024-01-15T02:03:30;98081.03;;;-0.06;100.00
29569;BME280;16501;51.462;14.346;2024-01-15T02:05:56;98092.06;;;-0.06;100.00
29569;BME280;16501;51.462;14.346;2024-01-15T02:08:22;98076.59;;;-0.04;100.00
29569;BME280;16501;51.462;14.346;2024-01-15T02:10:47;98084.25;;;-0.08;100.00
29569;BME280;16501;51.462;14.346;2024-01-15T02:13:13;98046.69;;;-0.24;100.00
29569;BME280;16501;51.462;14.346;2024-01-15T02:15:38;98072.00;;;-0.07;100.00
29569;BME280;16501;51.462;14.346;2024-01-15T02:18:05;98062.63;;;-0.18;100.00
29569;BME280;16501;51.462;14.346;2024-01-15T02:20:32;98066.66;;;-0.10;100.00
29569;BME280;16501;51.462;14.346;2024-01-15T02:23:07;98055.94;;;-0.08;100.00
29569;BME280;16501;51.462;14.346;2024-01-15T02:25:32;98047.63;;;-0.17;100.00
29569;BME280;16501;51.462;14.346;2024-01-15T02:27:58;98041.34;;;-0.18;100.00
29569;BME280;16501;51.462;14.346;2024-01-15T02:30:25;98042.59;;;-0.19;100.00
29569;BME280;16501;51.462;14.346;2024-01-15T02:32:50;98043.03;;;-0.21;100.00
29569;BME280;16501;51.462;14.346;2024-01-15T02:35:15;98033.09;;;-0.18;100.00
29569;BME280;16501;51.462;14.346;2024-01-15T02:37:41;98039.84;;;-0.19;100.00
29569;BME280;16501;51.462;14.346;2024-01-15T02:40:06;98045.66;;;-0.08;100.00
29569;BME280;16501;51.462;14.346;2024-01-15T02:42:32;98038.31;;;-0.11;100.00
29569;BME280;16501;51.462;14.346;2024-01-15T02:44:57;98050.72;;;-0.06;100.00
29569;BME280;16501;51.462;14.346;2024-01-15T02:47:22;98042.47;;;-0.06;100.00
29569;BME280;16501;51.462;14.346;2024-01-15T02:49:48;98025.31;;;-0.10;100.00
29569;BME280;16501;51.462;14.346;2024-01-15T02:52:13;98007.53;;;-0.28;100.00
29569;BME280;16501;51.462;14.346;2024-01-15T02:54:38;98040.91;;;-0.07;100.00
29569;BME280;16501;51.462;14.346;2024-01-15T02:57:04;98035.88;;;-0.09;100.00
29569;BME280;16501;51.462;14.346;2024-01-15T02:59:29;98015.03;;;-0.19;100.00
29569;BME280;16501;51.462;14.346;2024-01-15T03:01:54;98027.00;;;-0.13;100.00
29569;BME280;16501;51.462;14.346;2024-01-15T03:04:19;98038.16;;;-0.07;100.00
29569;BME280;16501;51.462;14.346;2024-01-15T03:06:45;98014.72;;;-0.21;100.00
29569;BME280;16501;51.462;14.346;2024-01-15T03:09:10;98016.41;;;-0.24;100.00
29569;BME280;16501;51.462;14.346;2024-01-15T03:11:39;98043.38;;;-0.09;100.00
29569;BME280;16501;51.462;14.346;2024-01-15T03:14:04;98044.56;;;-0.20;100.00
29569;BME280;16501;51.462;14.346;2024-01-15T03:16:29;98036.28;;;-0.20;100.00
29569;BME280;16501;51.462;14.346;2024-01-15T03:18:55;98055.72;;;-0.23;100.00
29569;BME280;16501;51.462;14.346;2024-01-15T03:21:20;98014.94;;;-0.47;100.00
29569;BME280;16501;51.462;14.346;2024-01-15T03:23:45;98025.22;;;-0.38;100.00
29569;BME280;16501;51.462;14.346;2024-01-15T03:26:10;98015.84;;;-0.50;100.00
29569;BME280;16501;51.462;14.346;2024-01-15T03:28:36;98034.88;;;-0.33;100.00
29569;BME280;16501;51.462;14.346;2024-01-15T03:31:02;98028.16;;;-0.32;100.00
29569;BME280;16501;51.462;14.346;2024-01-15T03:33:27;98019.09;;;-0.42;100.00
29569;BME280;16501;51.462;14.346;2024-01-15T03:35:52;98021.09;;;-0.33;100.00
29569;BME280;16501;51.462;14.346;2024-01-15T03:38:17;98016.31;;;-0.42;100.00
29569;BME280;16501;51.462;14.346;2024-01-15T03:40:43;98018.78;;;-0.44;100.00
29569;BME280;16501;51.462;14.346;2024-01-15T03:43:08;98015.44;;;-0.39;100.00
29569;BME280;16501;51.462;14.346;2024-01-15T03:45:33;98006.84;;;-0.50;100.00
29569;BME280;16501;51.462;14.346;2024-01-15T03:47:58;98045.84;;;-0.43;100.00
29569;BME280;16501;51.462;14.346;2024-01-15T03:50:24;98024.72;;;-0.46;100.00
29569;BME280;16501;51.462;14.346;2024-01-15T03:52:49;98036.56;;;-0.36;100.00
29569;BME280;16501;51.462;14.346;2024-01-15T03:55:15;98032.91;;;-0.33;100.00
29569;BME280;16501;51.462;14.346;2024-01-15T03:57:40;98043.31;;;-0.28;100.00
29569;BME280;16501;51.462;14.346;2024-01-15T04:00:06;98034.72;;;-0.30;100.00
29569;BME280;16501;51.462;14.346;2024-01-15T04:02:32;98020.94;;;-0.39;100.00
29569;BME280;16501;51.462;14.346;2024-01-15T04:04:57;98031.38;;;-0.25;100.00
29569;BME280;16501;51.462;14.346;2024-01-15T04:07:22;98041.19;;;-0.24;100.00
29569;BME280;16501;51.462;14.346;2024-01-15T04:09:47;98030.16;;;-0.24;100.00
29569;BME280;16501;51.462;14.346;2024-01-15T04:12:13;98023.84;;;-0.33;100.00
29569;BME280;16501;51.462;14.346;2024-01-15T04:14:38;98023.84;;;-0.33;100.00
29569;BME280;16501;51.462;14.346;2024-01-15T04:17:03;98026.38;;;-0.17;100.00
29569;BME280;16501;51.462;14.346;2024-01-15T04:19:29;98045.00;;;-0.21;100.00
29569;BME280;16501;51.462;14.346;2024-01-15T04:21:54;98042.41;;;-0.25;100.00
29569;BME280;16501;51.462;14.346;2024-01-15T04:24:19;97998.00;;;-0.36;100.00
29569;BME280;16501;51.462;14.346;2024-01-15T04:26:45;98021.28;;;-0.28;100.00
29569;BME280;16501;51.462;14.346;2024-01-15T04:29:10;98029.44;;;-0.15;100.00
29569;BME280;16501;51.462;14.346;2024-01-15T04:31:35;98034.47;;;-0.23;100.00
29569;BME280;16501;51.462;14.346;2024-01-15T04:34:01;98007.34;;;-0.33;100.00
29569;BME280;16501;51.462;14.346;2024-01-15T04:36:26;98008.13;;;-0.24;100.00
29569;BME280;16501;51.462;14.346;2024-01-15T04:38:51;97996.16;;;-0.39;100.00
29569;BME280;16501;51.462;14.346;2024-01-15T04:41:16;97984.66;;;-0.47;100.00
29569;BME280;16501;51.462;14.346;2024-01-15T04:43:42;97992.34;;;-0.32;100.00
29569;BME280;16501;51.462;14.346;2024-01-15T04:46:07;97993.41;;;-0.39;100.00
29569;BME280;16501;51.462;14.346;2024-01-15T04:48:33;98003.50;;;-0.36;100.00
29569;BME280;16501;51.462;14.346;2024-01-15T04:50:58;97987.88;;;-0.39;100.00
29569;BME280;16501;51.462;14.346;2024-01-15T04:53:23;98009.69;;;-0.23;100.00
29569;BME280;16501;51.462;14.346;2024-01-15T04:55:49;98005.97;;;-0.29;100.00
29569;BME280;16501;51.462;14.346;2024-01-15T04:58:14;98001.38;;;-0.32;100.00
29569;BME280;16501;51.462;14.346;2024-01-15T05:00:39;97991.25;;;-0.44;100.00
29569;BME280;16501;51.462;14.346;2024-01-15T05:03:04;97983.16;;;-0.39;100.00
29569;BME280;16501;51.462;14.346;2024-01-15T05:05:30;98015.28;;;-0.35;100.00
29569;BME280;16501;51.462;14.346;2024-01-15T05:07:55;98008.44;;;-0.31;100.00
29569;BME280;16501;51.462;14.346;2024-01-15T05:10:20;97988.66;;;-0.39;100.00
29569;BME280;16501;51.462;14.346;2024-01-15T05:12:46;97984.84;;;-0.41;100.00
29569;BME280;16501;51.462;14.346;2024-01-15T05:15:11;97997.09;;;-0.33;100.00
29569;BME280;16501;51.462;14.346;2024-01-15T05:17:36;97989.59;;;-0.42;100.00
29569;BME280;16501;51.462;14.346;2024-01-15T05:20:01;97978.97;;;-0.52;100.00
29569;BME280;16501;51.462;14.346;2024-01-15T05:22:28;97973.00;;;-0.51;100.00
29569;BME280;16501;51.462;14.346;2024-01-15T05:24:53;97997.09;;;-0.33;100.00
29569;BME280;16501;51.462;14.346;2024-01-15T05:27:19;98004.28;;;-0.35;100.00
29569;BME280;16501;51.462;14.346;2024-01-15T05:29:44;97994.50;;;-0.36;100.00
29569;BME280;16501;51.462;14.346;2024-01-15T05:32:09;97994.31;;;-0.42;100.00
29569;BME280;16501;51.462;14.346;2024-01-15T05:34:34;97977.94;;;-0.46;100.00
29569;BME280;16501;51.462;14.346;2024-01-15T05:37:00;97987.22;;;-0.52;100.00
29569;BME280;16501;51.462;14.346;2024-01-15T05:39:25;97966.22;;;-0.68;100.00
29569;BME280;16501;51.462;14.346;2024-01-15T05:41:51;98018.78;;;-0.44;100.00
29569;BME280;16501;51.462;14.346;2024-01-15T05:44:16;97984.75;;;-0.60;100.00
29569;BME280;16501;51.462;14.346;2024-01-15T05:46:41;97993.38;;;-0.48;100.00
29569;BME280;16501;51.462;14.346;2024-01-15T05:49:07;98013.56;;;-0.42;100.00
29569;BME280;16501;51.462;14.346;2024-01-15T05:51:32;98010.22;;;-0.37;100.00
29569;BME280;16501;51.462;14.346;2024-01-15T05:53:57;98023.34;;;-0.50;100.00
29569;BME280;16501;51.462;14.346;2024-01-15T05:56:23;97998.25;;;-0.52;100.00
29569;BME280;16501;51.462;14.346;2024-01-15T05:58:49;98008.38;;;-0.40;100.00
29569;BME280;16501;51.462;14.346;2024-01-15T06:01:14;97989.22;;;-0.53;100.00
29569;BME280;16501;51.462;14.346;2024-01-15T06:03:39;98005.91;;;-0.47;100.00
29569;BME280;16501;51.462;14.346;2024-01-15T06:06:05;98008.38;;;-0.40;100.00
29569;BME280;16501;51.462;14.346;2024-01-15T06:08:30;98008.06;;;-0.42;100.00
29569;BME280;16501;51.462;14.346;2024-01-15T06:10:56;98000.59;;;-0.42;100.00
29569;BME280;16501;51.462;14.346;2024-01-15T06:13:22;97998.59;;;-0.41;100.00
29569;BME280;16501;51.462;14.346;2024-01-15T06:15:47;97999.94;;;-0.46;100.00
29569;BME280;16501;51.462;14.346;2024-01-15T06:18:13;98006.56;;;-0.43;100.00
29569;BME280;16501;51.462;14.346;2024-01-15T06:20:39;97971.00;;;-0.60;100.00
29569;BME280;16501;51.462;14.346;2024-01-15T06:23:04;97985.72;;;-0.53;100.00
29569;BME280;16501;51.462;14.346;2024-01-15T06:25:29;97982.94;;;-0.63;100.00
29569;BME280;16501;51.462;14.346;2024-01-15T06:27:55;98001.56;;;-0.58;100.00
29569;BME280;16501;51.462;14.346;2024-01-15T06:30:20;98005.13;;;-0.57;100.00
29569;BME280;16501;51.462;14.346;2024-01-15T06:32:45;97995.75;;;-0.60;100.00
29569;BME280;16501;51.462;14.346;2024-01-15T06:35:10;98015.03;;;-0.60;100.00
29569;BME280;16501;51.462;14.346;2024-01-15T06:37:37;97950.44;;;-1.08;100.00
29569;BME280;16501;51.462;14.346;2024-01-15T06:40:03;98008.59;;;-0.66;100.00
29569;BME280;16501;51.462;14.346;2024-01-15T06:42:28;98009.75;;;-0.76;100.00
29569;BME280;16501;51.462;14.346;2024-01-15T06:44:53;98010.84;;;-0.73;100.00
29569;BME280;16501;51.462;14.346;2024-01-15T06:47:18;97998.81;;;-0.89;100.00
29569;BME280;16501;51.462;14.346;2024-01-15T06:49:44;98025.75;;;-0.84;100.00
29569;BME280;16501;51.462;14.346;2024-01-15T06:52:09;98012.66;;;-0.80;100.00
29569;BME280;16501;51.462;14.346;2024-01-15T06:54:34;98005.75;;;-0.84;100.00
29569;BME280;16501;51.462;14.346;2024-01-15T06:57:00;97991.81;;;-0.90;100.00
29569;BME280;16501;51.462;14.346;2024-01-15T06:59:25;97995.97;;;-0.85;100.00
29569;BME280;16501;51.462;14.346;2024-01-15T07:01:50;97999.34;;;-0.81;100.00
29569;BME280;16501;51.462;14.346;2024-01-15T07:04:15;98008.88;;;-0.73;100.00
29569;BME280;16501;51.462;14.346;2024-01-15T07:06:41;98014.41;;;-0.64;100.00
29569;BME280;16501;51.462;14.346;2024-01-15T07:09:06;98013.22;;;-0.63;100.00
29569;BME280;16501;51.462;14.346;2024-01-15T07:11:32;98000.16;;;-0.71;100.00
29569;BME280;16501;51.462;14.346;2024-01-15T07:13:58;98007.94;;;-0.70;100.00
29569;BME280;16501;51.462;14.346;2024-01-15T07:16:32;97980.97;;;-0.84;100.00
29569;BME280;16501;51.462;14.346;2024-01-15T07:18:58;98020.84;;;-0.58;100.00
29569;BME280;16501;51.462;14.346;2024-01-15T07:21:23;98019.34;;;-0.59;100.00
29569;BME280;16501;51.462;14.346;2024-01-15T07:23:48;97988.50;;;-0.76;100.00
29569;BME280;16501;51.462;14.346;2024-01-15T07:26:14;98014.72;;;-0.62;100.00
29569;BME280;16501;51.462;14.346;2024-01-15T07:28:39;98002.44;;;-0.70;100.00
29569;BME280;16501;51.462;14.346;2024-01-15T07:31:05;97998.44;;;-0.78;100.00
29569;BME280;16501;51.462;14.346;2024-01-15T07:33:31;98033.41;;;-0.57;100.00
29569;BME280;16501;51.462;14.346;2024-01-15T07:35:56;98019.59;;;-0.66;100.00
29569;BME280;16501;51.462;14.346;2024-01-15T07:38:22;98005.03;;;-0.76;100.00
29569;BME280;16501;51.462;14.346;2024-01-15T07:40:47;98040.31;;;-0.52;100.00
29569;BME280;16501;51.462;14.346;2024-01-15T07:43:14;98029.75;;;-0.53;100.00
29569;BME280;16501;51.462;14.346;2024-01-15T07:45:40;98015.47;;;-0.61;100.00
29569;BME280;16501;51.462;14.346;2024-01-15T07:48:05;98026.88;;;-0.50;100.00
29569;BME280;16501;51.462;14.346;2024-01-15T07:50:30;98038.00;;;-0.53;100.00
29569;BME280;16501;51.462;14.346;2024-01-15T07:52:56;98039.38;;;-0.49;100.00
29569;BME280;16501;51.462;14.346;2024-01-15T07:55:21;98051.19;;;-0.48;100.00
29569;BME280;16501;51.462;14.346;2024-01-15T07:57:46;98018.72;;;-0.63;100.00
29569;BME280;16501;51.462;14.346;2024-01-15T08:00:12;98035.25;;;-0.53;100.00
29569;BME280;16501;51.462;14.346;2024-01-15T08:02:37;98046.13;;;-0.50;100.00
29569;BME280;16501;51.462;14.346;2024-01-15T08:05:02;98033.41;;;-0.57;100.00
29569;BME280;16501;51.462;14.346;2024-01-15T08:07:28;98039.53;;;-0.52;100.00
29569;BME280;16501;51.462;14.346;2024-01-15T08:09:56;98060.81;;;-0.44;100.00
29569;BME280;16501;51.462;14.346;2024-01-15T08:12:21;98023.44;;;-0.63;100.00
29569;BME280;16501;51.462;14.346;2024-01-15T08:14:47;97998.75;;;-0.76;100.00
29569;BME280;16501;51.462;14.346;2024-01-15T08:17:12;98041.69;;;-0.47;100.00
29569;BME280;16501;51.462;14.346;2024-01-15T08:19:38;98035.41;;;-0.57;100.00
29569;BME280;16501;51.462;14.346;2024-01-15T08:22:06;98055.66;;;-0.42;100.00
29569;BME280;16501;51.462;14.346;2024-01-15T08:24:31;98058.59;;;-0.36;100.00
29569;BME280;16501;51.462;14.346;2024-01-15T08:26:56;98067.47;;;-0.32;100.00
29569;BME280;16501;51.462;14.346;2024-01-15T08:29:22;98066.53;;;-0.38;100.00
29569;BME280;16501;51.462;14.346;2024-01-15T08:31:48;98077.59;;;-0.20;100.00
29569;BME280;16501;51.462;14.346;2024-01-15T08:34:13;98093.81;;;-0.22;100.00
29569;BME280;16501;51.462;14.346;2024-01-15T08:36:38;98046.16;;;-0.41;100.00
29569;BME280;16501;51.462;14.346;2024-01-15T08:39:05;98071.47;;;-0.24;100.00
29569;BME280;16501;51.462;14.346;2024-01-15T08:41:32;98069.16;;;-0.34;100.00
29569;BME280;16501;51.462;14.346;2024-01-15T08:43:58;98075.59;;;-0.28;100.00
29569;BME280;16501;51.462;14.346;2024-01-15T08:46:23;98058.72;;;-0.40;100.00
29569;BME280;16501;51.462;14.346;2024-01-15T08:48:49;98077.41;;;-0.34;100.00
29569;BME280;16501;51.462;14.346;2024-01-15T08:51:14;98070.34;;;-0.35;100.00
29569;BME280;16501;51.462;14.346;2024-01-15T08:53:39;98085.69;;;-0.25;100.00
29569;BME280;16501;51.462;14.346;2024-01-15T08:56:05;98088.00;;;-0.24;100.00
29569;BME280;16501;51.462;14.346;2024-01-15T08:58:31;98055.31;;;-0.44;100.00
29569;BME280;16501;51.462;14.346;2024-01-15T09:00:56;98076.63;;;-0.35;100.00
29569;BME280;16501;51.462;14.346;2024-01-15T09:03:21;98079.13;;;-0.28;100.00
29569;BME280;16501;51.462;14.346;2024-01-15T09:05:46;98090.19;;;-0.18;100.00
29569;BME280;16501;51.462;14.346;2024-01-15T09:08:13;98092.31;;;-0.23;100.00
29569;BME280;16501;51.462;14.346;2024-01-15T09:10:39;98087.56;;;-0.22;100.00
29569;BME280;16501;51.462;14.346;2024-01-15T09:13:04;98067.16;;;-0.34;100.00
29569;BME280;16501;51.462;14.346;2024-01-15T09:15:29;98044.78;;;-0.45;100.00
29569;BME280;16501;51.462;14.346;2024-01-15T09:17:55;98076.50;;;-0.31;100.00
29569;BME280;16501;51.462;14.346;2024-01-15T09:20:20;98066.09;;;-0.36;100.00
29569;BME280;16501;51.462;14.346;2024-01-15T09:22:45;98079.59;;;-0.20;100.00
29569;BME280;16501;51.462;14.346;2024-01-15T09:25:11;98084.84;;;-0.13;100.00
29569;BME280;16501;51.462;14.346;2024-01-15T09:27:36;98091.28;;;-0.07;100.00
29569;BME280;16501;51.462;14.346;2024-01-15T09:30:02;98092.97;;;-0.09;100.00
29569;BME280;16501;51.462;14.346;2024-01-15T09:32:28;98068.69;;;-0.33;100.00
29569;BME280;16501;51.462;14.346;2024-01-15T09:34:53;98084.66;;;-0.18;100.00
29569;BME280;16501;51.462;14.346;2024-01-15T09:37:18;98065.13;;;-0.02;100.00
29569;BME280;16501;51.462;14.346;2024-01-15T09:39:43;98066.38;;;0.06;100.00
29569;BME280;16501;51.462;14.346;2024-01-15T09:42:09;98061.47;;;0.10;100.00
29569;BME280;16501;51.462;14.346;2024-01-15T09:44:36;98050.59;;;-0.03;100.00
29569;BME280;16501;51.462;14.346;2024-01-15T09:47:01;98079.22;;;0.00;100.00
29569;BME280;16501;51.462;14.346;2024-01-15T09:49:27;98084.63;;;0.13;100.00
29569;BME280;16501;51.462;14.346;2024-01-15T09:51:53;98068.22;;;0.00;100.00
29569;BME280;16501;51.462;14.346;2024-01-15T09:54:19;98085.69;;;0.15;100.00
29569;BME280;16501;51.462;14.346;2024-01-15T09:56:46;98071.41;;;-0.02;100.00
29569;BME280;16501;51.462;14.346;2024-01-15T09:59:18;98080.91;;;0.07;100.00
29569;BME280;16501;51.462;14.346;2024-01-15T10:01:44;98080.75;;;0.01;100.00
29569;BME280;16501;51.462;14.346;2024-01-15T10:04:13;98079.19;;;-0.09;100.00
29569;BME280;16501;51.462;14.346;2024-01-15T10:06:39;98069.72;;;0.01;100.00
29569;BME280;16501;51.462;14.346;2024-01-15T10:09:06;98059.59;;;-0.02;100.00
29569;BME280;16501;51.462;14.346;2024-01-15T10:11:33;98054.25;;;-0.06;100.00
29569;BME280;16501;51.462;14.346;2024-01-15T10:13:58;98071.75;;;0.10;100.00
29569;BME280;16501;51.462;14.346;2024-01-15T10:16:23;98059.91;;;-0.09;100.00
29569;BME280;16501;51.462;14.346;2024-01-15T10:18:49;98063.16;;;-0.02;100.00
29569;BME280;16501;51.462;14.346;2024-01-15T10:21:14;98065.63;;;0.06;100.00
29569;BME280;16501;51.462;14.346;2024-01-15T10:23:40;98083.06;;;0.12;100.00
29569;BME280;16501;51.462;14.346;2024-01-15T10:26:06;98075.31;;;0.20;100.00
29569;BME280;16501;51.462;14.346;2024-01-15T10:28:31;98048.63;;;0.07;100.00
29569;BME280;16501;51.462;14.346;2024-01-15T10:30:58;98015.69;;;-0.06;100.00
29569;BME280;16501;51.462;14.346;2024-01-15T10:33:24;98053.06;;;0.14;100.00
29569;BME280;16501;51.462;14.346;2024-01-15T10:35:54;98077.75;;;0.17;100.00
29569;BME280;16501;51.462;14.346;2024-01-15T10:38:21;98075.59;;;0.12;100.00
29569;BME280;16501;51.462;14.346;2024-01-15T10:40:47;98075.44;;;0.16;100.00
29569;BME280;16501;51.462;14.346;2024-01-15T10:43:13;98072.84;;;0.12;100.00
29569;BME280;16501;51.462;14.346;2024-01-15T10:45:38;98075.13;;;0.14;100.00
29569;BME280;16501;51.462;14.346;2024-01-15T10:48:04;98064.22;;;0.10;100.00
29569;BME280;16501;51.462;14.346;2024-01-15T10:50:31;98055.50;;;0.03;100.00
29569;BME280;16501;51.462;14.346;2024-01-15T10:52:57;98067.63;;;0.14;100.00
29569;BME280;16501;51.462;14.346;2024-01-15T10:55:23;98052.00;;;0.02;100.00
29569;BME280;16501;51.462;14.346;2024-01-15T10:57:49;98067.47;;;0.09;100.00
29569;BME280;16501;51.462;14.346;2024-01-15T11:00:14;98073.91;;;0.15;100.00
29569;BME280;16501;51.462;14.346;2024-01-15T11:02:40;98056.13;;;0.07;100.00
29569;BME280;16501;51.462;14.346;2024-01-15T11:05:07;98056.59;;;0.14;100.00
29569;BME280;16501;51.462;14.346;2024-01-15T11:07:32;98066.44;;;0.25;100.00
29569;BME280;16501;51.462;14.346;2024-01-15T11:09:57;98045.88;;;0.16;100.00
29569;BME280;16501;51.462;14.346;2024-01-15T11:12:24;98057.72;;;0.35;100.00
29569;BME280;16501;51.462;14.346;2024-01-15T11:14:52;98067.38;;;0.40;100.00
29569;BME280;16501;51.462;14.346;2024-01-15T11:17:26;98034.56;;;0.24;100.00
29569;BME280;16501;51.462;14.346;2024-01-15T11:19:52;98067.38;;;0.59;100.00
29569;BME280;16501;51.462;14.346;2024-01-15T11:24:55;98047.00;;;0.37;100.00
29569;BME280;16501;51.462;14.346;2024-01-15T11:27:40;98065.38;;;0.50;100.00
29569;BME280;16501;51.462;14.346;2024-01-15T11:30:11;98068.91;;;0.41;100.00
29569;BME280;16501;51.462;14.346;2024-01-15T11:32:37;98066.94;;;0.51;100.00
29569;BME280;16501;51.462;14.346;2024-01-15T11:35:06;98068.91;;;0.50;100.00
29569;BME280;16501;51.462;14.346;2024-01-15T11:40:21;98035.06;;;0.41;100.00
29569;BME280;16501;51.462;14.346;2024-01-15T11:42:47;98053.91;;;0.42;100.00
29569;BME280;16501;51.462;14.346;2024-01-15T11:45:18;98048.09;;;0.59;100.00
29569;BME280;16501;51.462;14.346;2024-01-15T11:50:18;98049.44;;;1.09;100.00
29569;BME280;16501;51.462;14.346;2024-01-15T11:52:59;98054.38;;;0.96;100.00
29569;BME280;16501;51.462;14.346;2024-01-15T11:55:30;98033.38;;;0.89;100.00
29569;BME280;16501;51.462;14.346;2024-01-15T11:58:00;98030.13;;;0.82;100.00
29569;BME280;16501;51.462;14.346;2024-01-15T12:00:26;98037.19;;;0.83;100.00
29569;BME280;16501;51.462;14.346;2024-01-15T12:02:51;98017.72;;;0.86;100.00
29569;BME280;16501;51.462;14.346;2024-01-15T12:05:18;98035.19;;;1.02;100.00
29569;BME280;16501;51.462;14.346;2024-01-15T12:07:46;98039.34;;;1.06;100.00
29569;BME280;16501;51.462;14.346;2024-01-15T12:10:17;98044.06;;;1.06;100.00
29569;BME280;16501;51.462;14.346;2024-01-15T12:13:11;98030.53;;;1.26;100.00
29569;BME280;16501;51.462;14.346;2024-01-15T12:15:38;98023.69;;;1.03;100.00
29569;BME280;16501;51.462;14.346;2024-01-15T12:18:07;98023.69;;;1.03;100.00
29569;BME280;16501;51.462;14.346;2024-01-15T12:20:46;98028.28;;;1.06;100.00
29569;BME280;16501;51.462;14.346;2024-01-15T12:23:14;98020.00;;;1.16;100.00
29569;BME280;16501;51.462;14.346;2024-01-15T12:25:40;97988.22;;;1.29;100.00
29569;BME280;16501;51.462;14.346;2024-01-15T12:28:06;98002.25;;;1.41;100.00
29569;BME280;16501;51.462;14.346;2024-01-15T12:30:33;98023.59;;;1.40;100.00
29569;BME280;16501;51.462;14.346;2024-01-15T12:33:06;97993.59;;;1.24;100.00
29569;BME280;16501;51.462;14.346;2024-01-15T12:35:33;98000.81;;;1.12;100.00
29569;BME280;16501;51.462;14.346;2024-01-15T12:38:00;97996.34;;;1.24;100.00
29569;BME280;16501;51.462;14.346;2024-01-15T12:40:27;98003.72;;;1.18;100.00
29569;BME280;16501;51.462;14.346;2024-01-15T12:42:52;98008.28;;;1.30;100.00
29569;BME280;16501;51.462;14.346;2024-01-15T12:45:18;97965.53;;;1.16;100.00